Time;durP1;ratioP1;P1;durP2;ratioP2;P2;SDS_P1;SDS_P2;PMS_P1;PMS_P2;Temp;Humidity;BMP_temperature;BMP_pressure;BME280_temperature;BME280_humidity;BME280_pressure;Samples;Min_cycle;Max_cycle;Signal;HPM_P1;HPM_P2
2022/12/22 03:28:08;;;;;;;0.00;0.00;;;;;;;4.85;100.00;99221.19;6304256;22;20038;-77
2022/12/22 03:30:34;;;;;;;0.00;0.00;;;;;;;4.96;100.00;99232.13;6250167;22;20003;-77
2022/12/22 03:33:00;;;;;;;0.00;0.00;;;;;;;4.89;100.00;99226.91;6293427;22;20003;-75
2022/12/22 03:35:26;;;;;;;0.00;0.00;;;;;;;4.88;100.00;99219.88;6253107;22;20046;-74
2022/12/22 03:37:52;;;;;;;0.00;0.00;;;;;;;4.90;100.00;99223.94;6253199;22;20032;-75
2022/12/22 03:40:17;;;;;;;0.00;0.00;;;;;;;4.88;100.00;99225.28;6277787;22;20074;-74
2022/12/22 03:48:11;;;;;;;0.00;0.00;;;;;;;4.71;100.00;99220.78;6262762;22;20014;-75
2022/12/22 03:50:38;;;;;;;0.00;0.00;;;;;;;4.75;100.00;99241.97;6228013;22;20030;-75
2022/12/22 03:53:04;;;;;;;0.00;0.00;;;;;;;4.76;100.00;99233.59;6253086;22;20010;-74
2022/12/22 03:55:30;;;;;;;0.00;0.00;;;;;;;4.57;100.00;99224.16;6278373;22;20086;-74
2022/12/22 03:57:56;;;;;;;0.00;0.00;;;;;;;4.57;100.00;99229.59;6279076;22;20003;-75
2022/12/22 04:00:21;;;;;;;0.00;0.00;;;;;;;4.45;100.00;99219.72;6279857;22;20477;-75
2022/12/22 04:02:49;;;;;;;0.00;0.00;;;;;;;4.44;100.00;99219.97;6250652;22;20007;-76
2022/12/22 04:05:18;;;;;;;0.00;0.00;;;;;;;4.44;100.00;99228.09;6253747;22;20061;-75
2022/12/22 04:07:53;;;;;;;0.00;0.00;;;;;;;4.37;100.00;99215.59;6255116;22;20100;-76
2022/12/22 04:13:10;;;;;;;0.00;0.00;;;;;;;4.25;100.00;99252.81;6279881;22;20014;-76
2022/12/22 04:15:35;;;;;;;0.00;0.00;;;;;;;4.17;100.00;99247.84;6276276;22;19995;-76
2022/12/22 04:18:01;;;;;;;0.00;0.00;;;;;;;4.11;100.00;99238.03;6246493;22;20007;-76
2022/12/22 04:20:34;;;;;;;0.00;0.00;;;;;;;4.00;100.00;99226.25;6274645;22;20003;-76
2022/12/22 04:23:02;;;;;;;0.00;0.00;;;;;;;3.93;100.00;99215.63;6252193;22;20011;-77
2022/12/22 04:25:28;;;;;;;0.00;0.00;;;;;;;3.89;100.00;99214.50;6274303;22;20003;-75
2022/12/22 04:27:54;;;;;;;0.10;0.10;;;;;;;3.87;100.00;99208.53;6250547;22;20015;-76
2022/12/22 04:30:19;;;;;;;0.00;0.00;;;;;;;3.97;100.00;99227.59;6273452;22;20007;-77
2022/12/22 04:32:47;;;;;;;0.10;0.10;;;;;;;3.91;100.00;99216.97;6226432;22;20422;-78
2022/12/22 04:35:12;;;;;;;0.00;0.00;;;;;;;3.90;100.00;99210.75;6246839;22;20493;-75
2022/12/22 04:37:41;;;;;;;0.10;0.10;;;;;;;3.96;100.00;99211.63;6304400;22;20023;-78
2022/12/22 04:40:07;;;;;;;0.00;0.00;;;;;;;3.99;100.00;99201.09;6273144;22;20041;-77
2022/12/22 04:42:32;;;;;;;0.00;0.00;;;;;;;4.15;100.00;99209.41;6250749;22;20007;-76
2022/12/22 04:44:58;;;;;;;0.00;0.00;;;;;;;4.15;100.00;99193.19;6274615;22;20395;-77
2022/12/22 04:47:26;;;;;;;0.00;0.00;;;;;;;4.33;100.00;99209.03;6251790;22;20338;-76
2022/12/22 04:49:54;;;;;;;0.00;0.00;;;;;;;4.27;100.00;99193.84;6272436;22;20010;-75
2022/12/22 04:52:20;;;;;;;0.00;0.00;;;;;;;4.50;100.00;99217.09;6274624;22;20381;-76
2022/12/22 04:54:45;;;;;;;0.00;0.00;;;;;;;4.60;100.00;99216.38;6302268;22;20078;-76
2022/12/22 04:57:11;;;;;;;0.00;0.00;;;;;;;4.66;100.00;99201.81;6276367;22;20086;-76
2022/12/22 04:59:38;;;;;;;0.00;0.00;;;;;;;4.76;100.00;99194.84;6272556;22;20003;-76
2022/12/22 05:02:04;;;;;;;0.00;0.00;;;;;;;4.93;100.00;99211.78;6249260;22;20014;-76
2022/12/22 05:04:29;;;;;;;0.00;0.00;;;;;;;5.07;100.00;99212.16;6220572;22;20090;-75
2022/12/22 05:06:55;;;;;;;0.00;0.00;;;;;;;5.16;100.00;99217.94;6250202;22;20019;-76
2022/12/22 05:09:20;;;;;;;0.00;0.00;;;;;;;5.24;100.00;99220.13;6249437;22;20007;-76
2022/12/22 05:11:45;;;;;;;0.00;0.00;;;;;;;5.29;100.00;99214.75;6246211;22;20141;-76
2022/12/22 05:14:11;;;;;;;0.00;0.00;;;;;;;5.39;100.00;99217.53;6247679;22;20156;-77
2022/12/22 05:16:36;;;;;;;0.00;0.00;;;;;;;5.47;100.00;99207.28;6220964;22;20004;-76
2022/12/22 05:19:02;;;;;;;0.00;0.00;;;;;;;5.57;100.00;99210.84;6274206;22;20003;-76
2022/12/22 05:21:27;;;;;;;0.00;0.00;;;;;;;5.64;100.00;99199.78;6247453;22;20003;-75
2022/12/22 05:23:53;;;;;;;0.00;0.00;;;;;;;5.64;100.00;99194.38;6225443;22;20018;-76
2022/12/22 05:26:18;;;;;;;0.00;0.00;;;;;;;5.72;100.00;99202.00;6224936;22;20008;-75
2022/12/22 05:28:45;;;;;;;0.00;0.00;;;;;;;5.73;100.00;99198.19;6247438;22;20042;-77
2022/12/22 05:31:16;;;;;;;0.00;0.00;;;;;;;5.84;100.00;99206.38;6250875;22;20093;-76
2022/12/22 05:33:42;;;;;;;0.00;0.00;;;;;;;5.91;100.00;99201.53;6273074;22;20034;-76
2022/12/22 05:36:07;;;;;;;0.00;0.00;;;;;;;5.94;100.00;99192.84;6225605;22;20080;-76
2022/12/22 05:38:33;;;;;;;0.00;0.00;;;;;;;5.97;100.00;99205.91;6222657;22;20011;-76
2022/12/22 05:40:59;;;;;;;0.00;0.00;;;;;;;6.04;100.00;99222.78;6226610;22;20471;-74
2022/12/22 05:43:24;;;;;;;0.00;0.00;;;;;;;6.07;100.00;99197.81;6302553;22;20003;-76
2022/12/22 05:45:50;;;;;;;0.00;0.00;;;;;;;6.17;100.00;99196.22;6220878;22;20440;-77
2022/12/22 05:48:15;;;;;;;0.00;0.00;;;;;;;6.24;100.00;99191.38;6275064;22;20003;-77
2022/12/22 05:50:41;;;;;;;0.00;0.00;;;;;;;6.25;100.00;99185.66;6223622;22;20015;-77
2022/12/22 05:53:07;;;;;;;0.00;0.00;;;;;;;6.21;100.00;99164.75;6239482;22;20010;-74
2022/12/22 05:55:32;;;;;;;0.00;0.00;;;;;;;6.29;100.00;99172.38;6291058;22;20218;-74
2022/12/22 05:58:00;;;;;;;0.00;0.00;;;;;;;6.38;100.00;99172.66;6313291;22;20003;-73
2022/12/22 06:00:27;;;;;;;0.00;0.00;;;;;;;6.45;100.00;99170.50;6226887;22;20007;-75
2022/12/22 06:02:52;;;;;;;0.00;0.00;;;;;;;6.43;100.00;99168.06;6297453;22;20003;-75
2022/12/22 06:05:18;;;;;;;0.00;0.00;;;;;;;6.48;100.00;99172.66;6224279;22;20413;-73
2022/12/22 06:07:43;;;;;;;0.00;0.00;;;;;;;6.50;100.00;99162.38;6238263;22;20019;-74
2022/12/22 06:10:10;;;;;;;0.00;0.00;;;;;;;6.53;100.00;99169.16;6269506;22;20433;-76
2022/12/22 06:12:35;;;;;;;0.00;0.00;;;;;;;6.53;100.00;99153.69;6266092;22;19998;-74
2022/12/22 06:15:03;;;;;;;0.00;0.00;;;;;;;6.69;100.00;99176.22;6267249;22;20000;-75
2022/12/22 06:17:29;;;;;;;0.00;0.00;;;;;;;6.68;100.00;99162.94;6218026;22;20004;-74
2022/12/22 06:19:54;;;;;;;0.00;0.00;;;;;;;6.80;100.00;99172.44;6266435;22;20011;-74
2022/12/22 06:22:19;;;;;;;0.00;0.00;;;;;;;6.74;100.00;99156.41;6243735;22;20035;-75
2022/12/22 06:24:45;;;;;;;0.00;0.00;;;;;;;6.82;100.00;99159.38;6239919;22;20077;-74
2022/12/22 06:27:13;;;;;;;0.10;0.10;;;;;;;6.87;100.00;99149.59;6270570;22;20016;-75
2022/12/22 06:29:40;;;;;;;0.00;0.00;;;;;;;6.90;100.00;99151.78;6242565;22;20004;-75
2022/12/22 06:32:14;;;;;;;0.05;0.05;;;;;;;6.98;100.00;99145.81;6268177;22;20003;-75
2022/12/22 06:34:39;;;;;;;;;;;;;;;7.05;100.00;99157.19;6269872;22;20027;-76
2022/12/22 06:37:05;;;;;;;0.00;0.00;;;;;;;6.95;100.00;99135.44;6263980;22;19907;-76
2022/12/22 06:39:31;;;;;;;0.00;0.00;;;;;;;7.02;100.00;99149.56;6271726;22;20008;-76
2022/12/22 06:44:46;;;;;;;0.10;0.10;;;;;;;7.10;100.00;99138.16;6267429;22;20511;-75
2022/12/22 06:47:19;;;;;;;0.00;0.00;;;;;;;7.19;100.00;99140.34;6240116;22;20015;-74
2022/12/22 06:49:47;;;;;;;0.00;0.00;;;;;;;7.22;100.00;99135.16;6244946;22;20019;-74
2022/12/22 06:52:15;;;;;;;0.03;0.03;;;;;;;7.30;100.00;99136.47;6269364;22;20004;-75
2022/12/22 06:54:42;;;;;;;0.00;0.00;;;;;;;7.36;100.00;99135.41;6242581;22;20373;-76
2022/12/22 06:57:10;;;;;;;0.10;0.10;;;;;;;7.40;100.00;99136.44;6271300;22;20049;-75
2022/12/22 06:59:38;;;;;;;0.00;0.00;;;;;;;7.45;100.00;99128.28;6214505;22;20015;-76
2022/12/22 07:02:08;;;;;;;0.00;0.00;;;;;;;7.50;100.00;99120.13;6269828;22;20654;-74
2022/12/22 07:04:33;;;;;;;0.00;0.00;;;;;;;7.55;100.00;99110.28;6241500;22;20091;-76
2022/12/22 07:06:59;;;;;;;0.00;0.00;;;;;;;7.60;100.00;99116.53;6218550;22;20043;-75
2022/12/22 07:09:24;;;;;;;0.00;0.00;;;;;;;7.64;100.00;99114.09;6216121;22;20008;-77
2022/12/22 07:11:56;;;;;;;0.00;0.00;;;;;;;7.67;100.00;99113.53;6267332;22;20090;-75
2022/12/22 07:14:24;;;;;;;0.00;0.00;;;;;;;7.82;100.00;99116.16;6267636;22;19996;-76
2022/12/22 07:17:01;;;;;;;0.00;0.00;;;;;;;7.92;100.00;99131.63;6216310;22;20003;-76
2022/12/22 07:19:50;;;;;;;0.00;0.00;;;;;;;7.86;100.00;99111.78;6241152;22;20069;-75
2022/12/22 07:22:15;;;;;;;0.00;0.00;;;;;;;8.00;100.00;99122.06;6262301;22;20084;-78
2022/12/22 07:24:41;;;;;;;0.00;0.00;;;;;;;7.98;100.00;99121.53;6242886;22;20138;-77
2022/12/22 07:27:08;;;;;;;0.00;0.00;;;;;;;8.12;100.00;99135.31;6242973;22;20012;-78
2022/12/22 07:29:39;;;;;;;0.00;0.00;;;;;;;8.01;100.00;99107.34;6244856;22;20414;-78
2022/12/22 07:32:05;;;;;;;0.00;0.00;;;;;;;8.19;100.00;99131.22;6242574;22;20011;-78
2022/12/22 07:34:38;;;;;;;0.00;0.00;;;;;;;8.10;100.00;99102.94;6274048;22;20505;-78
2022/12/22 07:37:04;;;;;;;0.00;0.00;;;;;;;8.06;100.00;99110.06;6270000;22;20030;-79
2022/12/22 07:39:39;;;;;;;0.00;0.00;;;;;;;7.99;100.00;99093.22;6247830;22;20008;-81
2022/12/22 07:44:49;;;;;;;0.10;0.10;;;;;;;7.96;100.00;99107.41;6269175;22;20022;-78
2022/12/22 07:47:38;;;;;;;0.00;0.00;;;;;;;7.90;100.00;99094.88;6271173;22;20011;-79
2022/12/22 07:50:31;;;;;;;0.00;0.00;;;;;;;7.83;100.00;99082.41;6275296;22;20004;-74
2022/12/22 07:53:03;;;;;;;0.00;0.00;;;;;;;7.85;100.00;99068.53;6277083;22;20010;-74
2022/12/22 07:55:35;;;;;;;0.00;0.00;;;;;;;7.96;100.00;99083.69;6277432;22;20006;-75
2022/12/22 07:58:06;;;;;;;0.00;0.00;;;;;;;7.96;100.00;99080.97;6277398;22;20000;-75
2022/12/22 08:00:52;;;;;;;;;;;;;;;;;;;;;
2022/12/22 08:03:21;;;;;;;0.00;0.00;;;;;;;8.01;100.00;99080.13;6276555;22;20107;-75
2022/12/22 08:05:46;;;;;;;0.00;0.00;;;;;;;8.11;100.00;99098.31;6276755;22;19999;-75
2022/12/22 08:08:12;;;;;;;0.00;0.00;;;;;;;8.14;100.00;99092.31;6275123;22;20322;-76
2022/12/22 08:10:39;;;;;;;0.00;0.00;;;;;;;8.12;100.00;99087.16;6246862;22;20030;-74
2022/12/22 08:13:05;;;;;;;0.00;0.00;;;;;;;8.16;100.00;99098.28;6272223;22;20371;-75
2022/12/22 08:18:57;;;;;;;0.00;0.00;;;;;;;8.12;100.00;99097.22;6186508;23;20008;-76
2022/12/22 08:21:25;;;;;;;0.00;0.00;;;;;;;8.20;100.00;99116.47;6219616;22;20033;-75
2022/12/22 08:24:53;;;;;;;;;;;;;;;;;;;;;
2022/12/22 08:34:31;;;;;;;0.00;0.00;;;;;;;8.40;100.00;99117.47;6136475;23;20005;-76
2022/12/22 08:38:08;;;;;;;;;;;;;;;;;;;;;
2022/12/22 08:41:48;;;;;;;0.00;0.00;;;;;;;8.50;100.00;99113.88;6067275;23;20096;-77
2022/12/22 08:44:52;;;;;;;0.00;0.00;;;;;;;8.68;100.00;99136.91;6144240;23;20341;-77
2022/12/22 08:47:41;;;;;;;;;;;;;;;;;;;;;
2022/12/22 08:50:10;;;;;;;0.00;0.00;;;;;;;8.77;100.00;99129.72;6067685;23;20088;-75
2022/12/22 08:52:41;;;;;;;0.00;0.00;;;;;;;8.79;100.00;99119.38;6145613;23;20023;-75
2022/12/22 08:55:27;;;;;;;0.00;0.00;;;;;;;8.86;100.00;99117.13;6180267;22;20033;-75
2022/12/22 08:58:17;;;;;;;;;;;;;;;;;;;;;
2022/12/22 09:00:45;;;;;;;0.00;0.00;;;;;;;8.91;100.00;99117.06;6273329;22;20492;-75
2022/12/22 09:11:15;;;;;;;;;;;;;;;;;;;;;
2022/12/22 09:21:03;;;;;;;0.00;0.00;;;;;;;9.13;100.00;99083.03;6108219;23;20427;-76
2022/12/22 09:30:00;;;;;;;0.00;0.00;;;;;;;9.39;100.00;99083.56;6016138;23;20026;-77
2022/12/22 09:32:27;;;;;;;0.00;0.00;;;;;;;9.45;100.00;99078.88;6007764;23;20011;-76
2022/12/22 09:35:09;;;;;;;0.00;0.00;;;;;;;9.68;100.00;99111.88;6123074;23;20042;-77
2022/12/22 09:38:33;;;;;;;0.00;0.00;;;;;;;9.56;100.00;99091.28;6222284;22;20018;-77
2022/12/22 09:41:48;;;;;;;;;;;;;;;;;;;;;
2022/12/22 09:51:28;;;;;;;0.00;0.00;;;;;;;9.83;100.00;99110.84;6091476;23;20045;-76
2022/12/22 09:58:38;;;;;;;0.00;0.00;;;;;;;9.84;100.00;99107.88;5980284;23;20367;-76
2022/12/22 10:05:53;;;;;;;;;;;;;;;;;;;;;
2022/12/22 10:12:08;;;;;;;;;;;;;;;;;;;;;
2022/12/22 12:23:17;;;;;;;0.00;0.00;;;;;;;12.05;100.00;99019.09;6330610;22;20022;-78
2022/12/22 12:26:21;;;;;;;0.10;0.10;;;;;;;11.77;100.00;98985.47;6306283;22;20027;-82
2022/12/22 12:29:27;;;;;;;;;;;;;;;;;;;;;
2022/12/22 12:32:29;;;;;;;;;;;;;;;;;;;;;
2022/12/22 12:35:35;;;;;;;;;;;;;;;;;;;;;
2022/12/22 12:38:33;;;;;;;0.00;0.00;;;;;;;11.44;100.00;98985.66;6320842;22;20492;-78
2022/12/22 12:41:29;;;;;;;0.00;0.00;;;;;;;11.37;100.00;98998.13;6331681;22;19998;-77
2022/12/22 12:44:23;;;;;;;0.08;0.08;;;;;;;11.19;100.00;98965.13;6305448;22;20461;-78
2022/12/22 12:47:24;;;;;;;0.00;0.00;;;;;;;11.10;100.00;98969.69;6300694;22;20123;-79
2022/12/22 13:14:40;;;;;;;0.00;0.00;;;;;;;11.20;100.00;99010.53;6089190;23;20017;-78
2022/12/22 13:32:06;;;;;;;;;;;;;;;;;;;;;
2022/12/22 13:49:05;;;;;;;;;;;;;;;;;;;;;
2022/12/22 13:52:01;;;;;;;0.00;0.00;;;;;;;11.45;100.00;98978.25;5970271;23;20016;-78
2022/12/22 13:58:43;;;;;;;;;;;;;;;;;;;;;
2022/12/22 14:12:48;;;;;;;;;;;;;;;;;;;;;
2022/12/22 14:18:43;;;;;;;0.00;0.00;;;;;;;11.90;100.00;98966.56;6113168;23;20401;-77
2022/12/22 14:21:20;;;;;;;0.00;0.00;;;;;;;11.87;100.00;98957.03;6171766;23;20000;-78
2022/12/22 14:23:48;;;;;;;0.00;0.00;;;;;;;11.87;100.00;98973.47;6213291;22;20019;-77
2022/12/22 14:26:35;;;;;;;;;;;;;;;;;;;;;
2022/12/22 14:29:08;;;;;;;0.00;0.00;;;;;;;11.66;100.00;98971.19;6327799;22;20994;-78
2022/12/22 14:32:08;;;;;;;0.00;0.00;;;;;;;11.53;100.00;98963.84;6334403;22;20447;-77
2022/12/22 14:34:34;;;;;;;0.00;0.00;;;;;;;11.50;100.00;98975.41;6334136;22;19991;-77
2022/12/22 14:37:02;;;;;;;0.00;0.00;;;;;;;11.44;100.00;98971.16;6306951;22;20096;-78
2022/12/22 14:39:40;;;;;;;0.00;0.00;;;;;;;11.44;100.00;98971.16;6255393;22;20089;-79
2022/12/22 14:42:22;;;;;;;0.00;0.00;;;;;;;11.39;100.00;98969.34;6304603;22;20002;-78
2022/12/22 14:45:00;;;;;;;0.00;0.00;;;;;;;11.43;100.00;98964.84;6280472;22;19998;-79
2022/12/22 14:47:47;;;;;;;;;;;;;;;;;;;;;
2022/12/22 14:50:40;;;;;;;0.00;0.00;;;;;;;11.29;100.00;98970.38;6307711;22;20086;-80
2022/12/22 14:53:17;;;;;;;0.00;0.00;;;;;;;11.31;100.00;98976.34;6330576;22;20021;-80
2022/12/22 14:56:22;;;;;;;;;;;;;;;;;;;;;
2022/12/22 14:59:09;;;;;;;0.00;0.00;;;;;;;11.22;100.00;98980.13;6333889;22;20089;-80
2022/12/22 15:01:34;;;;;;;0.00;0.00;;;;;;;11.15;100.00;98977.78;6304508;22;20006;-79
2022/12/22 15:04:27;;;;;;;;;;;;;;;;;;;;;
2022/12/22 15:07:36;;;;;;;;;;;;;;;;;;;;;
2022/12/22 15:10:04;;;;;;;0.00;0.00;;;;;;;11.08;100.00;98986.41;6321491;22;20509;-80
2022/12/22 15:12:32;;;;;;;0.00;0.00;;;;;;;11.06;100.00;98985.88;6329918;22;20037;-79
2022/12/22 15:15:31;;;;;;;0.00;0.00;;;;;;;10.99;100.00;98993.69;6278607;22;19995;-79
2022/12/22 15:18:34;;;;;;;0.00;0.00;;;;;;;10.92;100.00;98982.34;6300158;22;20007;-77
2022/12/22 15:22:19;;;;;;;;;;;;;;;;;;;;;
2022/12/22 15:32:31;;;;;;;0.00;0.00;;;;;;;10.92;100.00;98976.88;6076887;23;20129;-76
2022/12/22 15:35:52;;;;;;;;;;;;;;;;;;;;;
2022/12/22 15:39:37;;;;;;;0.00;0.00;;;;;;;11.10;100.00;98995.13;6166793;23;20566;-77
2022/12/22 15:42:00;;;;;;;;;;;;;;;;;;;;;
2022/12/22 15:44:31;;;;;;;0.00;0.00;;;;;;;11.13;100.00;98999.19;6303286;22;20078;-77
2022/12/22 15:47:28;;;;;;;0.00;0.00;;;;;;;11.08;100.00;99002.00;6246459;22;20015;-78
2022/12/22 15:50:00;;;;;;;0.00;0.00;;;;;;;11.07;100.00;99003.94;6275635;22;20003;-77
2022/12/22 15:52:30;;;;;;;0.00;0.00;;;;;;;10.94;100.00;98991.88;6274726;22;20007;-76
2022/12/22 15:55:25;;;;;;;0.00;0.00;;;;;;;10.90;100.00;98990.84;6275820;22;19999;-81
2022/12/22 15:58:32;;;;;;;;;;;;;;;;;;;;;
2022/12/22 16:01:11;;;;;;;;;;;;;;;;;;;;;
2022/12/22 16:03:36;;;;;;;0.00;0.00;;;;;;;10.81;100.00;99009.88;6300922;22;20370;-77
2022/12/22 16:06:03;;;;;;;0.00;0.00;;;;;;;10.76;100.00;99028.31;6274989;22;20030;-76
2022/12/22 16:09:19;;;;;;;;;;;;;;;;;;;;;
2022/12/22 16:15:31;;;;;;;;;;;;;;;;;;;;;
2022/12/22 16:18:14;;;;;;;0.00;0.00;;;;;;;10.72;100.00;99054.63;6082809;23;20081;-78
2022/12/22 16:25:19;;;;;;;;;;;;;;;;;;;;;
2022/12/22 16:28:31;;;;;;;;;;;;;;;;;;;;;
2022/12/22 16:31:51;;;;;;;0.00;0.00;;;;;;;10.45;100.00;99059.75;6086599;23;20392;-76
2022/12/22 16:34:42;;;;;;;;;;;;;;;;;;;;;
2022/12/22 16:37:25;;;;;;;0.00;0.00;;;;;;;10.34;100.00;99079.31;6085654;23;20141;-77
2022/12/22 16:40:00;;;;;;;0.00;0.00;;;;;;;10.28;100.00;99081.28;6194202;23;20216;-77
2022/12/22 16:42:50;;;;;;;0.00;0.00;;;;;;;10.35;100.00;99097.34;6311335;22;20417;-78
2022/12/22 16:45:27;;;;;;;0.00;0.00;;;;;;;10.31;100.00;99084.22;6329194;22;19999;-79
2022/12/22 16:47:56;;;;;;;0.00;0.00;;;;;;;10.40;100.00;99089.06;6324630;22;20018;-78
2022/12/22 16:50:31;;;;;;;0.00;0.00;;;;;;;10.39;100.00;99084.69;6307534;22;20464;-79
2022/12/22 16:52:57;;;;;;;;;;;;;;;10.46;100.00;99085.13;6331388;22;20002;-77
2022/12/22 16:55:23;;;;;;;0.00;0.00;;;;;;;10.38;100.00;99083.06;6331473;22;19902;-78
2022/12/22 16:57:48;;;;;;;0.00;0.00;;;;;;;10.46;100.00;99102.34;6274982;22;20007;-77
2022/12/22 17:00:16;;;;;;;0.10;0.10;;;;;;;10.40;100.00;99097.25;6328556;22;20006;-78
2022/12/22 17:02:49;;;;;;;0.00;0.00;;;;;;;10.42;100.00;99095.03;6335232;22;20059;-78
2022/12/22 17:05:23;;;;;;;0.00;0.00;;;;;;;10.44;100.00;99104.56;6332232;22;20011;-77
2022/12/22 17:07:50;;;;;;;0.00;0.00;;;;;;;10.34;100.00;99095.69;6331285;22;20009;-78
2022/12/22 17:10:24;;;;;;;0.00;0.00;;;;;;;10.41;100.00;99104.34;6305956;22;20026;-79
2022/12/22 17:12:57;;;;;;;0.00;0.00;;;;;;;10.37;100.00;99103.34;6328820;22;20097;-80
2022/12/22 17:15:26;;;;;;;0.00;0.00;;;;;;;10.35;100.00;99111.00;6332714;22;20440;-78
2022/12/22 17:17:54;;;;;;;0.00;0.00;;;;;;;10.22;100.00;99101.59;6329081;22;20421;-79
2022/12/22 17:20:25;;;;;;;0.10;0.10;;;;;;;10.32;100.00;99106.91;6330550;22;20010;-80
2022/12/22 17:22:59;;;;;;;0.00;0.00;;;;;;;10.24;100.00;99094.72;6330091;22;20034;-81
2022/12/22 17:25:29;;;;;;;0.00;0.00;;;;;;;10.25;100.00;99098.25;6330144;22;20002;-77
2022/12/22 17:28:09;;;;;;;0.00;0.00;;;;;;;10.08;100.00;99096.06;6327331;22;20376;-77
2022/12/22 17:30:58;;;;;;;0.10;0.10;;;;;;;9.86;100.00;99083.78;6328163;22;20006;-77
2022/12/22 17:33:26;;;;;;;0.10;0.10;;;;;;;9.88;100.00;99097.16;6299441;22;20014;-79
2022/12/22 17:35:52;;;;;;;0.00;0.00;;;;;;;9.77;100.00;99118.31;6329552;22;20003;-78
2022/12/22 17:38:28;;;;;;;0.00;0.00;;;;;;;9.76;100.00;99122.16;6304657;22;20003;-78
2022/12/22 17:40:55;;;;;;;0.00;0.00;;;;;;;9.75;100.00;99117.78;6329784;22;20067;-77
2022/12/22 17:43:21;;;;;;;0.00;0.00;;;;;;;9.75;100.00;99131.44;6331693;22;19999;-78
2022/12/22 17:45:49;;;;;;;0.00;0.00;;;;;;;9.65;100.00;99131.56;6303894;22;20448;-79
2022/12/22 17:48:15;;;;;;;0.00;0.00;;;;;;;9.43;100.00;99138.34;6303913;22;20011;-78
2022/12/22 17:58:50;;;;;;;0.00;0.00;;;;;;;9.24;100.00;99149.19;6121682;23;20010;-78
2022/12/22 18:01:42;;;;;;;0.00;0.00;;;;;;;9.22;100.00;99149.50;6092288;23;20046;-78
2022/12/22 18:05:25;;;;;;;;;;;;;;;;;;;;;
2022/12/22 18:19:08;;;;;;;0.00;0.00;;;;;;;9.43;100.00;99127.44;6076042;23;20319;-80
2022/12/22 18:26:04;;;;;;;;;;;;;;;;;;;;;
2022/12/22 18:32:23;;;;;;;;;;;;;;;;;;;;;
2022/12/22 18:35:00;;;;;;;0.00;0.00;;;;;;;9.67;100.00;99152.00;6113799;23;20365;-77
2022/12/22 18:37:57;;;;;;;;;;;;;;;;;;;;;
2022/12/22 18:40:49;;;;;;;;;;;;;;;;;;;;;
2022/12/22 18:43:43;;;;;;;0.00;0.00;;;;;;;9.71;100.00;99157.69;6215033;22;20101;-79
2022/12/22 18:50:02;;;;;;;;;;;;;;;;;;;;;
2022/12/22 18:52:33;;;;;;;0.00;0.00;;;;;;;9.73;100.00;99160.97;6318702;22;20070;-79
2022/12/22 18:56:03;;;;;;;0.05;0.05;;;;;;;9.83;100.00;99179.94;6335155;22;20003;-79
2022/12/22 18:58:51;;;;;;;;;;;;;;;;;;;;;
2022/12/22 19:15:31;;;;;;;0.00;0.00;;;;;;;9.07;100.00;99188.63;6096553;23;20041;-80
2022/12/22 19:28:59;;;;;;;;;;;;;;;;;;;;;
2022/12/22 19:52:41;;;;;;;0.00;0.00;;;;;;;9.44;100.00;99198.09;6065485;23;20018;-84
2022/12/22 19:56:10;;;;;;;0.10;0.10;;;;;;;9.53;100.00;99217.38;6116101;23;20008;-81
2022/12/22 19:58:38;;;;;;;0.00;0.00;;;;;;;9.53;100.00;99208.41;6185836;23;20001;-83
2022/12/22 20:01:10;;;;;;;0.00;0.00;;;;;;;9.53;100.00;99198.28;6311678;22;20089;-83
2022/12/22 20:03:39;;;;;;;0.00;0.00;;;;;;;9.57;100.00;99212.97;6315661;22;19995;-83
2022/12/22 20:06:07;;;;;;;0.00;0.00;;;;;;;9.57;100.00;99210.25;6263193;22;20036;-82
2022/12/22 20:12:18;;;;;;;;;;;;;;;;;;;;;
2022/12/22 20:15:13;;;;;;;0.00;0.00;;;;;;;9.50;100.00;99223.41;6333414;22;20776;-78
2022/12/22 20:18:27;;;;;;;;;;;;;;;;;;;;;
2022/12/22 20:21:11;;;;;;;0.00;0.00;;;;;;;9.30;100.00;99229.06;6336449;22;20386;-78
2022/12/22 20:23:38;;;;;;;0.00;0.00;;;;;;;9.33;100.00;99228.50;6309995;22;20082;-77
2022/12/22 20:26:13;;;;;;;0.00;0.00;;;;;;;9.36;100.00;99239.66;6307089;22;20068;-78
2022/12/22 20:28:42;;;;;;;0.00;0.00;;;;;;;9.33;100.00;99242.97;6307321;22;20033;-79
2022/12/22 20:31:21;;;;;;;0.00;0.00;;;;;;;9.29;100.00;99249.25;6306336;22;20002;-78
2022/12/22 20:33:53;;;;;;;0.00;0.00;;;;;;;9.34;100.00;99257.41;6302861;22;19994;-78
2022/12/22 20:36:30;;;;;;;0.00;0.00;;;;;;;9.35;100.00;99259.06;6306346;22;20444;-79
2022/12/22 20:39:01;;;;;;;0.00;0.00;;;;;;;9.23;100.00;99241.13;6309086;22;20428;-78
2022/12/22 20:41:31;;;;;;;0.00;0.00;;;;;;;9.31;100.00;99249.81;6279800;22;20376;-78
2022/12/22 20:43:57;;;;;;;0.10;0.10;;;;;;;9.29;100.00;99233.72;6282736;22;20448;-81
2022/12/22 20:46:28;;;;;;;0.00;0.00;;;;;;;9.44;100.00;99251.88;6310199;22;20011;-77
2022/12/22 20:48:58;;;;;;;0.00;0.00;;;;;;;9.53;100.00;99255.59;6306551;22;20010;-78
2022/12/22 20:51:27;;;;;;;0.10;0.10;;;;;;;9.51;100.00;99246.88;6309193;22;20003;-79
2022/12/22 20:53:53;;;;;;;0.00;0.00;;;;;;;9.51;100.00;99244.16;6305623;22;20060;-78
2022/12/22 20:56:35;;;;;;;0.00;0.00;;;;;;;9.56;100.00;99263.22;6308818;22;20007;-80
2022/12/22 20:59:26;;;;;;;0.00;0.00;;;;;;;9.40;100.00;99250.81;6303270;22;20016;-81
2022/12/22 21:01:54;;;;;;;0.10;0.10;;;;;;;9.37;100.00;99267.75;6304653;22;20002;-77
2022/12/22 21:04:20;;;;;;;0.00;0.00;;;;;;;9.28;100.00;99258.56;6287122;22;20010;-79
2022/12/22 21:07:29;;;;;;;;;;;;;;;;;;;;;
2022/12/22 21:10:05;;;;;;;0.00;0.00;;;;;;;9.20;100.00;99263.53;6301602;22;20087;-78
2022/12/22 21:12:49;;;;;;;0.00;0.00;;;;;;;9.16;100.00;99267.94;6333017;22;20002;-77
2022/12/22 21:16:08;;;;;;;;;;;;;;;;;;;;;
2022/12/22 21:18:47;;;;;;;0.00;0.00;;;;;;;9.02;100.00;99264.22;6329134;22;20052;-79
2022/12/22 21:21:43;;;;;;;;;;;;;;;;;;;;;
2022/12/22 21:24:40;;;;;;;0.00;0.00;;;;;;;9.22;100.00;99310.44;6285818;22;20063;-79
2022/12/22 21:27:29;;;;;;;0.00;0.00;;;;;;;9.24;100.00;99310.97;6331102;22;20463;-79
2022/12/22 21:29:56;;;;;;;0.00;0.00;;;;;;;9.25;100.00;99320.75;6322132;22;20063;-80
2022/12/22 21:32:51;;;;;;;0.00;0.00;;;;;;;9.20;100.00;99307.19;6341478;22;20083;-78
2022/12/22 21:35:29;;;;;;;0.00;0.00;;;;;;;9.25;100.00;99309.84;6302887;22;20014;-78
2022/12/22 21:41:24;;;;;;;;;;;;;;;;;;;;;
2022/12/22 21:44:16;;;;;;;;;;;;;;;;;;;;;
2022/12/22 21:47:19;;;;;;;0.00;0.00;;;;;;;9.31;100.00;99296.19;6334891;22;20071;-82
2022/12/22 21:50:25;;;;;;;0.00;0.00;;;;;;;9.26;100.00;99311.50;6250601;22;20003;-78
2022/12/22 21:52:54;;;;;;;0.00;0.00;;;;;;;9.29;100.00;99314.72;6323013;22;20002;-77
2022/12/22 21:55:33;;;;;;;0.00;0.00;;;;;;;9.30;100.00;99310.91;6303967;22;20003;-80
2022/12/22 21:57:59;;;;;;;0.00;0.00;;;;;;;9.21;100.00;99280.69;6337014;22;20006;-76
2022/12/22 22:00:32;;;;;;;0.00;0.00;;;;;;;9.29;100.00;99292.91;6328873;22;20496;-78
2022/12/22 22:03:01;;;;;;;0.00;0.00;;;;;;;9.24;100.00;99291.03;6335373;22;20599;-78
2022/12/22 22:05:53;;;;;;;;;;;;;;;;;;;;;
2022/12/22 22:08:31;;;;;;;;;;;;;;;;;;;;;
2022/12/22 22:11:09;;;;;;;0.00;0.00;;;;;;;9.14;100.00;99267.41;6329019;22;20051;-79
2022/12/22 22:13:57;;;;;;;0.00;0.00;;;;;;;9.18;100.00;99275.81;6333492;22;20006;-79
2022/12/22 22:16:42;;;;;;;0.00;0.00;;;;;;;9.22;100.00;99295.97;6334420;22;20086;-81
2022/12/22 22:19:07;;;;;;;0.00;0.00;;;;;;;9.18;100.00;99290.25;6312843;22;20094;-77
2022/12/22 22:21:53;;;;;;;0.00;0.00;;;;;;;9.09;100.00;99283.78;6310355;22;20017;-79
2022/12/22 22:24:20;;;;;;;0.00;0.00;;;;;;;9.08;100.00;99293.91;6337763;22;20003;-78
2022/12/22 22:26:56;;;;;;;0.00;0.00;;;;;;;9.11;100.00;99297.94;6339494;22;20069;-78
2022/12/22 22:29:24;;;;;;;0.00;0.00;;;;;;;9.16;100.00;99314.28;6311398;22;20002;-79
2022/12/22 22:32:15;;;;;;;0.00;0.00;;;;;;;9.15;100.00;99309.94;6335217;22;20446;-78
2022/12/22 22:34:59;;;;;;;0.08;0.08;;;;;;;9.14;100.00;99316.50;6332012;22;20002;-78
2022/12/22 22:37:28;;;;;;;0.03;0.03;;;;;;;9.10;100.00;99301.78;6312969;22;20006;-78
2022/12/22 22:39:56;;;;;;;0.00;0.00;;;;;;;9.13;100.00;99306.69;6302528;22;20007;-76
2022/12/22 22:42:38;;;;;;;0.00;0.00;;;;;;;9.09;100.00;99294.72;6308914;22;20527;-78
2022/12/22 22:45:18;;;;;;;0.00;0.00;;;;;;;9.17;100.00;99307.75;6328164;22;20003;-77
2022/12/22 22:47:44;;;;;;;0.00;0.00;;;;;;;9.10;100.00;99301.78;6332691;22;19999;-76
2022/12/22 22:50:09;;;;;;;0.00;0.00;;;;;;;9.15;100.00;99309.13;6332327;22;20014;-77
2022/12/22 22:52:38;;;;;;;0.00;0.00;;;;;;;9.25;100.00;99331.69;6330200;22;20310;-78
2022/12/22 22:55:14;;;;;;;;;;;;;;;;;;;;;
2022/12/22 22:57:47;;;;;;;0.00;0.00;;;;;;;9.22;100.00;99326.00;6336214;22;20103;-79